Time;durP1;ratioP1;P1;durP2;ratioP2;P2;SDS_P1;SDS_P2;PMS_P1;PMS_P2;Temp;Humidity;BMP_temperature;BMP_pressure;BME280_temperature;BME280_humidity;BME280_pressure;Samples;Min_cycle;Max_cycle;Signal;HPM_P1;HPM_P2
2022/05/14 00:01:00;;;;;;;;;;;10.40;1.00;;;;;;5077140;28;20048;-73
2022/05/14 00:03:27;;;;;;;;;;;10.30;1.00;;;;;;5075693;28;20003;-73
2022/05/14 00:05:57;;;;;;;;;;;10.30;1.00;;;;;;5073271;28;19920;-73
2022/05/14 00:08:24;;;;;;;;;;;10.30;1.00;;;;;;5077116;28;20001;-73
2022/05/14 00:13:34;;;;;;;;;;;10.30;1.00;;;;;;5075417;28;20043;-73
2022/05/14 00:16:12;;;;;;;;;;;10.30;1.00;;;;;;5057367;28;19909;-73
2022/05/14 00:18:38;;;;;;;;;;;10.30;1.00;;;;;;5070609;28;19909;-73
2022/05/14 00:21:04;;;;;;;;;;;10.30;1.00;;;;;;5069641;28;20008;-73
2022/05/14 00:23:30;;;;;;;;;;;10.20;1.00;;;;;;5070062;28;19915;-73
2022/05/14 00:25:55;;;;;;;;;;;10.10;1.00;;;;;;5071120;28;19921;-73
2022/05/14 00:28:21;;;;;;;;;;;10.20;1.00;;;;;;5076606;28;19909;-74
2022/05/14 00:30:48;;;;;;;;;;;10.10;1.00;;;;;;5071488;28;19913;-73
2022/05/14 00:33:13;;;;;;;;;;;10.20;1.00;;;;;;5057008;28;19951;-73
2022/05/14 00:35:39;;;;;;;;;;;10.10;1.00;;;;;;5069228;28;20260;-73
2022/05/14 00:38:05;;;;;;;;;;;10.10;1.00;;;;;;5076509;28;19944;-73
2022/05/14 00:40:32;;;;;;;;;;;10.10;1.00;;;;;;5057257;28;19909;-73
2022/05/14 00:49:03;;;;;;;;;;;10.00;1.00;;;;;;5059107;28;19915;-82
2022/05/14 00:51:53;;;;;;;;;;;10.00;1.00;;;;;;5076220;28;19908;-82
2022/05/14 00:57:24;;;;;;;;;;;9.90;1.00;;;;;;5056367;28;19915;-76
2022/05/14 00:59:50;;;;;;;;;;;9.90;1.00;;;;;;5069795;28;19913;-73
2022/05/14 01:02:17;;;;;;;;;;;9.90;1.00;;;;;;5055974;28;19909;-73
2022/05/14 01:04:43;;;;;;;;;;;9.80;1.00;;;;;;5057849;28;20004;-73
2022/05/14 01:07:12;;;;;;;;;;;9.80;1.00;;;;;;5068450;28;20267;-73
2022/05/14 01:09:40;;;;;;;;;;;9.80;1.00;;;;;;5069271;28;19909;-73
2022/05/14 01:12:06;;;;;;;;;;;9.80;1.00;;;;;;5063566;28;19913;-73
2022/05/14 01:14:32;;;;;;;;;;;9.70;1.00;;;;;;5067019;28;19908;-73
2022/05/14 01:16:58;;;;;;;;;;;9.70;1.00;;;;;;5068626;28;19935;-73
2022/05/14 01:19:23;;;;;;;;;;;9.60;1.00;;;;;;5075774;28;20318;-73
2022/05/14 01:21:52;;;;;;;;;;;9.60;1.00;;;;;;5062967;28;19920;-73
2022/05/14 01:27:22;;;;;;;;;;;9.50;1.00;;;;;;5039379;28;19924;-73
2022/05/14 01:35:54;;;;;;;;;;;9.40;1.00;;;;;;5053336;28;20059;-81
2022/05/14 01:38:56;;;;;;;;;;;9.30;1.00;;;;;;5053545;28;19916;-82
2022/05/14 01:44:24;;;;;;;;;;;9.30;1.00;;;;;;5053333;28;20386;-73
2022/05/14 01:46:50;;;;;;;;;;;9.30;1.00;;;;;;5043394;28;19916;-73
2022/05/14 01:49:15;;;;;;;;;;;9.20;1.00;;;;;;5040208;28;19913;-73
2022/05/14 01:51:41;;;;;;;;;;;9.20;1.00;;;;;;5049667;28;20410;-73
2022/05/14 01:54:07;;;;;;;;;;;9.20;1.00;;;;;;5040193;28;20027;-73
2022/05/14 01:56:33;;;;;;;;;;;9.20;1.00;;;;;;5040132;28;19913;-73
2022/05/14 02:02:02;;;;;;;;;;;9.10;1.00;;;;;;5052739;28;19950;-81
2022/05/14 02:04:51;;;;;;;;;;;9.10;1.00;;;;;;5048942;28;20030;-81
2022/05/14 02:07:53;;;;;;;;;;;9.00;1.00;;;;;;5068945;28;19921;-82
2022/05/14 02:13:21;;;;;;;;;;;9.00;1.00;;;;;;5058760;28;19958;-81
2022/05/14 02:15:47;;;;;;;;;;;9.00;1.00;;;;;;5053933;28;19908;-82
2022/05/14 02:21:24;;;;;;;;;;;9.00;1.00;;;;;;5054632;28;20391;-81
2022/05/14 02:27:23;;;;;;;;;;;9.00;1.00;;;;;;5057149;28;19920;-81
2022/05/14 02:32:52;;;;;;;;;;;9.00;1.00;;;;;;5034562;28;19924;-82
2022/05/14 02:35:23;;;;;;;;;;;9.00;1.00;;;;;;5034484;28;19913;-82
2022/05/14 02:38:24;;;;;;;;;;;9.00;1.00;;;;;;5034278;28;19960;-82
2022/05/14 02:41:23;;;;;;;;;;;9.00;1.00;;;;;;5034464;28;19909;-81
2022/05/14 02:43:49;;;;;;;;;;;9.00;1.00;;;;;;5051055;28;19915;-73
2022/05/14 02:46:15;;;;;;;;;;;8.90;1.00;;;;;;5060247;28;19924;-73
2022/05/14 02:48:41;;;;;;;;;;;8.90;1.00;;;;;;5062526;28;19909;-73
2022/05/14 02:51:17;;;;;;;;;;;8.90;1.00;;;;;;5073956;28;19908;-74
2022/05/14 02:53:48;;;;;;;;;;;8.90;1.00;;;;;;5064533;28;19955;-74
2022/05/14 02:56:13;;;;;;;;;;;8.90;1.00;;;;;;5059961;28;19909;-73
2022/05/14 03:01:23;;;;;;;;;;;8.90;1.00;;;;;;5067920;28;19955;-74
2022/05/14 03:03:49;;;;;;;;;;;8.90;1.00;;;;;;5066646;28;19917;-73
2022/05/14 03:06:14;;;;;;;;;;;8.90;1.00;;;;;;5054158;28;19921;-73
2022/05/14 03:08:40;;;;;;;;;;;8.90;1.00;;;;;;5035272;28;19932;-73
2022/05/14 03:11:06;;;;;;;;;;;8.80;1.00;;;;;;5047349;28;20000;-73
2022/05/14 03:13:31;;;;;;;;;;;8.80;1.00;;;;;;5046539;28;19909;-74
2022/05/14 03:19:00;;;;;;;;;;;8.80;1.00;;;;;;5014291;28;19920;-81
2022/05/14 03:21:41;;;;;;;;;;;8.80;1.00;;;;;;5014175;28;20008;-82
2022/05/14 03:24:23;;;;;;;;;;;8.80;1.00;;;;;;5014708;28;19975;-82
2022/05/14 03:29:54;;;;;;;;;;;8.70;1.00;;;;;;5018562;28;19921;-73
2022/05/14 03:32:24;;;;;;;;;;;8.60;1.00;;;;;;5026112;28;20015;-73
2022/05/14 03:34:50;;;;;;;;;;;8.60;1.00;;;;;;5047840;28;20348;-73
2022/05/14 03:37:17;;;;;;;;;;;8.50;1.00;;;;;;5033013;28;19916;-73
2022/05/14 03:39:43;;;;;;;;;;;8.60;1.00;;;;;;5051049;28;19944;-73
2022/05/14 03:42:09;;;;;;;;;;;8.60;1.00;;;;;;5045102;28;19998;-73
2022/05/14 03:50:40;;;;;;;;;;;8.50;1.00;;;;;;5037260;28;19916;-81
2022/05/14 03:56:08;;;;;;;;;;;8.50;1.00;;;;;;5057018;28;19935;-81
2022/05/14 03:58:53;;;;;;;;;;;8.50;1.00;;;;;;5057184;28;19909;-81
2022/05/14 04:01:19;;;;;;;;;;;8.50;1.00;;;;;;5048221;28;19913;-73
2022/05/14 04:03:48;;;;;;;;;;;8.50;1.00;;;;;;5054866;28;19913;-74
2022/05/14 04:06:17;;;;;;;;;;;8.50;1.00;;;;;;5050793;28;19921;-74
2022/05/14 04:08:43;;;;;;;;;;;8.40;1.00;;;;;;5040388;28;19913;-73
2022/05/14 04:11:09;;;;;;;;;;;8.40;1.00;;;;;;5029289;28;19908;-74
2022/05/14 04:13:35;;;;;;;;;;;8.40;1.00;;;;;;5056215;28;19909;-73
2022/05/14 04:22:23;;;;;;;;;;;8.40;1.00;;;;;;5056708;28;20043;-81
2022/05/14 04:24:53;;;;;;;;;;;8.50;1.00;;;;;;5056887;28;19909;-81
2022/05/14 04:27:23;;;;;;;;;;;8.50;1.00;;;;;;5037151;28;19963;-82
2022/05/14 04:29:53;;;;;;;;;;;8.40;1.00;;;;;;5019308;28;19909;-81
2022/05/14 04:35:53;;;;;;;;;;;8.50;1.00;;;;;;5056469;28;20327;-81
2022/05/14 04:38:41;;;;;;;;;;;8.50;1.00;;;;;;5056098;28;19916;-81
2022/05/14 04:44:17;;;;;;;;;;;8.60;1.00;;;;;;5039362;28;19962;-81
2022/05/14 04:46:43;;;;;;;;;;;8.60;1.00;;;;;;5047154;28;19916;-73
2022/05/14 04:49:09;;;;;;;;;;;8.70;1.00;;;;;;5044226;28;20272;-74
2022/05/14 04:51:35;;;;;;;;;;;8.70;1.00;;;;;;5042786;28;19996;-73
2022/05/14 04:54:00;;;;;;;;;;;8.80;1.00;;;;;;5056146;28;19951;-73
2022/05/14 04:56:26;;;;;;;;;;;8.80;1.00;;;;;;5044073;28;20375;-73
2022/05/14 04:58:53;;;;;;;;;;;8.90;1.00;;;;;;5048283;28;19909;-73
2022/05/14 05:01:19;;;;;;;;;;;9.00;1.00;;;;;;5041645;28;19909;-74
2022/05/14 05:03:45;;;;;;;;;;;9.00;1.00;;;;;;5030762;28;19916;-79
2022/05/14 05:06:14;;;;;;;;;;;9.10;1.00;;;;;;5051612;28;19925;-78
2022/05/14 05:08:49;;;;;;;;;;;9.20;1.00;;;;;;5025446;28;19909;-78
2022/05/14 05:11:18;;;;;;;;;;;9.20;1.00;;;;;;5030002;28;19909;-78
2022/05/14 05:13:59;;;;;;;;;;;9.40;1.00;;;;;;5049200;28;19909;-78
2022/05/14 05:16:53;;;;;;;;;;;9.50;1.00;;;;;;5046087;28;19909;-79
2022/05/14 05:19:47;;;;;;;;;;;9.50;1.00;;;;;;5029344;28;19909;-78
2022/05/14 05:22:23;;;;;;;;;;;9.60;1.00;;;;;;5042235;28;19909;-78
2022/05/14 05:24:54;;;;;;;;;;;9.70;1.00;;;;;;5043912;28;19909;-78
2022/05/14 05:27:23;;;;;;;;;;;9.90;1.00;;;;;;5055115;28;19963;-78
2022/05/14 05:29:49;;;;;;;;;;;10.00;1.00;;;;;;5053726;28;19916;-78
2022/05/14 05:32:17;;;;;;;;;;;10.10;1.00;;;;;;5035832;28;19909;-79
2022/05/14 05:34:47;;;;;;;;;;;10.20;1.00;;;;;;5048793;28;19916;-79
2022/05/14 05:37:23;;;;;;;;;;;10.20;1.00;;;;;;5028535;28;20035;-74
2022/05/14 05:39:53;;;;;;;;;;;10.40;1.00;;;;;;5049258;28;19909;-81
2022/05/14 05:42:23;;;;;;;;;;;10.60;1.00;;;;;;5035176;28;19913;-81
2022/05/14 05:44:55;;;;;;;;;;;11.60;1.00;;;;;;5048466;28;19999;-82
2022/05/14 05:47:21;;;;;;;;;;;12.30;1.00;;;;;;5045794;28;19921;-75
2022/05/14 05:49:47;;;;;;;;;;;12.80;1.00;;;;;;5023213;28;19920;-76
2022/05/14 05:52:13;;;;;;;;;;;12.90;1.00;;;;;;5028466;28;20281;-75
2022/05/14 05:57:30;;;;;;;;;;;12.90;1.00;;;;;;5042530;28;19934;-75
2022/05/14 05:59:56;;;;;;;;;;;12.90;1.00;;;;;;5015813;28;19913;-76
2022/05/14 06:02:29;;;;;;;;;;;12.90;1.00;;;;;;5042382;28;19908;-76
2022/05/14 06:04:55;;;;;;;;;;;13.00;1.00;;;;;;5043004;28;19908;-76
2022/05/14 06:07:23;;;;;;;;;;;13.00;1.00;;;;;;5054509;28;19923;-76
2022/05/14 06:10:00;;;;;;;;;;;13.10;1.00;;;;;;5067105;28;19970;-75
2022/05/14 06:12:38;;;;;;;;;;;13.10;1.00;;;;;;5054880;28;20017;-76
2022/05/14 06:15:05;;;;;;;;;;;13.20;1.00;;;;;;5066610;28;20373;-75
2022/05/14 06:17:30;;;;;;;;;;;13.30;1.00;;;;;;5062040;28;19944;-76
2022/05/14 06:19:56;;;;;;;;;;;13.40;1.00;;;;;;5063143;28;19944;-76
2022/05/14 06:22:22;;;;;;;;;;;13.50;1.00;;;;;;5059675;28;19999;-76
2022/05/14 06:24:48;;;;;;;;;;;13.60;1.00;;;;;;5063338;28;19995;-76
2022/05/14 06:27:14;;;;;;;;;;;13.80;1.00;;;;;;5099897;28;20335;-75
2022/05/14 06:29:39;;;;;;;;;;;13.90;1.00;;;;;;5063120;28;19966;-75
2022/05/14 06:32:05;;;;;;;;;;;14.00;1.00;;;;;;5059838;28;20000;-75
2022/05/14 06:34:31;;;;;;;;;;;14.10;1.00;;;;;;5107215;28;19999;-76
2022/05/14 06:37:05;;;;;;;;;;;14.30;1.00;;;;;;5061133;28;20246;-76
2022/05/14 06:39:36;;;;;;;;;;;14.40;1.00;;;;;;5074394;28;19917;-76
2022/05/14 06:42:02;;;;;;;;;;;14.60;1.00;;;;;;5047945;28;19915;-75
2022/05/14 06:44:35;;;;;;;;;;;14.80;1.00;;;;;;5064730;28;19991;-75
2022/05/14 06:47:23;;;;;;;;;;;14.90;99.90;;;;;;5066654;28;19916;-76
2022/05/14 06:49:49;;;;;;;;;;;15.00;99.90;;;;;;5067956;28;20003;-76
2022/05/14 06:52:17;;;;;;;;;;;15.20;99.90;;;;;;5065107;28;19944;-76
2022/05/14 06:54:45;;;;;;;;;;;15.30;99.90;;;;;;5069611;28;19992;-76
2022/05/14 06:57:12;;;;;;;;;;;15.40;99.90;;;;;;5065694;28;19974;-76
2022/05/14 06:59:38;;;;;;;;;;;15.50;99.90;;;;;;5060760;28;19908;-76
2022/05/14 07:02:04;;;;;;;;;;;15.60;99.90;;;;;;5063003;28;19913;-75
2022/05/14 07:07:23;;;;;;;;;;;15.80;99.90;;;;;;5057337;28;19970;-76
2022/05/14 07:09:55;;;;;;;;;;;16.00;99.90;;;;;;5065545;28;19908;-76
2022/05/14 07:12:24;;;;;;;;;;;16.10;99.90;;;;;;5056171;28;19917;-76
2022/05/14 07:14:54;;;;;;;;;;;16.20;99.90;;;;;;5063998;28;19999;-76
2022/05/14 07:17:20;;;;;;;;;;;16.40;99.90;;;;;;5070975;28;19909;-76
2022/05/14 07:19:59;;;;;;;;;;;16.50;99.90;;;;;;5064498;28;19958;-76
2022/05/14 07:22:25;;;;;;;;;;;16.50;99.90;;;;;;5060484;28;19915;-75
2022/05/14 07:24:51;;;;;;;;;;;16.60;99.90;;;;;;5061346;28;19912;-77
2022/05/14 07:27:16;;;;;;;;;;;16.70;99.90;;;;;;5072572;28;19960;-77
2022/05/14 07:29:53;;;;;;;;;;;16.90;99.90;;;;;;5062356;28;19909;-76
2022/05/14 07:32:19;;;;;;;;;;;17.10;99.90;;;;;;5071738;28;20330;-76
2022/05/14 07:34:45;;;;;;;;;;;17.20;99.90;;;;;;5053992;28;19940;-75
2022/05/14 07:37:18;;;;;;;;;;;17.30;99.90;;;;;;5058084;28;19917;-75
2022/05/14 07:39:53;;;;;;;;;;;17.40;99.90;;;;;;5087069;28;19918;-74
2022/05/14 07:42:25;;;;;;;;;;;17.50;99.90;;;;;;5064491;28;20279;-75
2022/05/14 07:44:55;;;;;;;;;;;17.70;99.90;;;;;;5063561;28;20340;-78
2022/05/14 07:47:21;;;;;;;;;;;17.80;99.90;;;;;;5063968;28;19999;-77
2022/05/14 07:49:47;;;;;;;;;;;17.80;99.90;;;;;;5067062;28;19909;-76
2022/05/14 07:52:14;;;;;;;;;;;17.90;99.90;;;;;;5085991;28;19908;-76
2022/05/14 07:54:53;;;;;;;;;;;18.00;99.90;;;;;;5053650;28;19912;-76
2022/05/14 07:57:23;;;;;;;;;;;18.00;99.90;;;;;;5065525;28;19908;-77
2022/05/14 07:59:49;;;;;;;;;;;18.00;99.90;;;;;;5067999;28;19916;-76
2022/05/14 08:02:26;;;;;;;;;;;18.20;99.90;;;;;;5053836;28;19909;-76
2022/05/14 08:04:52;;;;;;;;;;;18.40;99.90;;;;;;5040896;28;19978;-76
2022/05/14 08:07:24;;;;;;;;;;;18.50;99.90;;;;;;5066881;28;19970;-76
2022/05/14 08:09:49;;;;;;;;;;;18.70;99.90;;;;;;5061742;28;19915;-76
2022/05/14 08:12:15;;;;;;;;;;;18.80;99.90;;;;;;5058425;28;19912;-74
2022/05/14 08:14:41;;;;;;;;;;;18.80;99.90;;;;;;5060162;28;19913;-73
2022/05/14 08:20:24;;;;;;;;;;;19.00;99.90;;;;;;5056939;28;19951;-84
2022/05/14 08:25:55;;;;;;;;;;;19.10;99.90;;;;;;5067863;28;19935;-84
2022/05/14 08:28:47;;;;;;;;;;;19.10;99.90;;;;;;5063265;28;19909;-83
2022/05/14 08:31:17;;;;;;;;;;;19.30;99.90;;;;;;5066087;28;19959;-83
2022/05/14 08:33:43;;;;;;;;;;;19.40;99.90;;;;;;5064480;28;19952;-74
2022/05/14 08:36:08;;;;;;;;;;;19.60;99.90;;;;;;5065350;28;19975;-74
2022/05/14 08:38:34;;;;;;;;;;;19.80;99.90;;;;;;5061825;28;19908;-74
2022/05/14 08:41:00;;;;;;;;;;;20.00;99.90;;;;;;5064707;28;19959;-74
2022/05/14 08:43:31;;;;;;;;;;;20.10;99.90;;;;;;5074675;28;19916;-74
2022/05/14 08:45:59;;;;;;;;;;;20.30;99.90;;;;;;5076421;28;19912;-74
2022/05/14 08:48:36;;;;;;;;;;;20.40;99.90;;;;;;5076790;28;19909;-74
2022/05/14 08:51:06;;;;;;;;;;;20.30;99.90;;;;;;5075451;28;19909;-74
2022/05/14 08:53:33;;;;;;;;;;;20.20;99.90;;;;;;5064447;28;19908;-73
2022/05/14 08:56:07;;;;;;;;;;;20.40;99.90;;;;;;5063381;28;19971;-73
2022/05/14 08:58:45;;;;;;;;;;;20.50;99.90;;;;;;5076145;28;19932;-74
2022/05/14 09:01:12;;;;;;;;;;;20.70;99.90;;;;;;5076028;28;19940;-74
2022/05/14 09:03:43;;;;;;;;;;;20.70;99.90;;;;;;5065237;28;19916;-83
2022/05/14 09:09:12;;;;;;;;;;;20.90;99.90;;;;;;5060354;28;19939;-83
2022/05/14 09:11:59;;;;;;;;;;;21.10;99.90;;;;;;5065578;28;19909;-83
2022/05/14 09:14:47;;;;;;;;;;;21.30;99.90;;;;;;5062692;28;20336;-83
2022/05/14 09:17:20;;;;;;;;;;;21.50;99.90;;;;;;5062367;28;19909;-83
2022/05/14 09:19:53;;;;;;;;;;;21.50;99.90;;;;;;5065024;28;19957;-83
2022/05/14 09:25:28;;;;;;;;;;;21.70;99.90;;;;;;5054347;28;19963;-83
2022/05/14 09:31:23;;;;;;;;;;;21.80;99.90;;;;;;5035396;28;20312;-83
2022/05/14 09:33:59;;;;;;;;;;;22.00;99.90;;;;;;5048204;28;19962;-74
2022/05/14 09:36:28;;;;;;;;;;;22.10;99.90;;;;;;5075124;28;20379;-74
2022/05/14 09:39:04;;;;;;;;;;;22.10;99.90;;;;;;5067681;28;19915;-74
2022/05/14 09:41:37;;;;;;;;;;;22.00;99.90;;;;;;5068295;28;19916;-74
2022/05/14 09:44:03;;;;;;;;;;;21.80;99.90;;;;;;5055246;28;19909;-73
2022/05/14 09:46:29;;;;;;;;;;;21.80;99.90;;;;;;5068629;28;19966;-73
2022/05/14 09:49:23;;;;;;;;;;;21.70;99.90;;;;;;5065222;28;19908;-83
2022/05/14 09:51:51;;;;;;;;;;;21.70;99.90;;;;;;5049273;28;19916;-84
2022/05/14 09:57:29;;;;;;;;;;;21.70;99.90;;;;;;5067229;28;20448;-83
2022/05/14 10:00:29;;;;;;;;;;;21.60;99.90;;;;;;5080466;28;19946;-83
2022/05/14 10:03:05;;;;;;;;;;;21.50;99.90;;;;;;5061893;28;19909;-73
2022/05/14 10:05:40;;;;;;;;;;;21.50;99.90;;;;;;5074711;28;20245;-73
2022/05/14 10:08:09;;;;;;;;;;;21.80;99.90;;;;;;5074783;28;19917;-74
2022/05/14 10:10:52;;;;;;;;;;;21.80;99.90;;;;;;5074600;28;19979;-73
2022/05/14 10:13:24;;;;;;;;;;;21.70;99.90;;;;;;5068397;28;19908;-73
2022/05/14 10:16:00;;;;;;;;;;;21.90;99.90;;;;;;5059945;28;19912;-73
2022/05/14 10:18:36;;;;;;;;;;;21.90;99.90;;;;;;5062985;28;19928;-83
2022/05/14 10:21:11;;;;;;;;;;;21.70;99.90;;;;;;5048339;28;20412;-83
2022/05/14 10:26:49;;;;;;;;;;;22.00;99.90;;;;;;5061159;28;20390;-83
2022/05/14 10:29:33;;;;;;;;;;;22.20;99.90;;;;;;5074868;28;20005;-84
2022/05/14 10:31:59;;;;;;;;;;;22.20;99.90;;;;;;5060081;28;19909;-84
2022/05/14 10:34:37;;;;;;;;;;;22.30;99.90;;;;;;5074457;28;19958;-74
2022/05/14 10:37:08;;;;;;;;;;;22.40;99.90;;;;;;5073703;28;19912;-74
2022/05/14 10:39:52;;;;;;;;;;;22.30;99.90;;;;;;5074090;28;20291;-74
2022/05/14 10:42:25;;;;;;;;;;;22.50;99.90;;;;;;5073856;28;19931;-74
2022/05/14 10:44:53;;;;;;;;;;;22.70;99.90;;;;;;5060821;28;19913;-74
2022/05/14 10:47:19;;;;;;;;;;;22.80;99.90;;;;;;5063880;28;19963;-74
2022/05/14 10:52:50;;;;;;;;;;;22.70;99.90;;;;;;5067647;28;19915;-84
2022/05/14 10:55:35;;;;;;;;;;;22.80;99.90;;;;;;5062739;28;19908;-84
2022/05/14 10:58:04;;;;;;;;;;;22.70;99.90;;;;;;5060848;28;19915;-84
2022/05/14 11:00:43;;;;;;;;;;;23.00;99.90;;;;;;5062473;28;20077;-84
2022/05/14 11:03:41;;;;;;;;;;;23.20;99.90;;;;;;5061102;28;19953;-85
2022/05/14 11:06:09;;;;;;;;;;;23.20;99.90;;;;;;5060980;28;19920;-84
2022/05/14 11:11:55;;;;;;;;;;;23.20;99.90;;;;;;5059616;28;19920;-84
2022/05/14 11:20:27;;;;;;;;;;;23.60;99.90;;;;;;5056671;28;19931;-74
2022/05/14 11:23:03;;;;;;;;;;;23.50;99.90;;;;;;5073760;28;20352;-74
2022/05/14 11:25:29;;;;;;;;;;;23.60;99.90;;;;;;5060347;28;19909;-74
2022/05/14 11:28:13;;;;;;;;;;;23.70;99.90;;;;;;5073740;28;19935;-74
2022/05/14 11:30:41;;;;;;;;;;;23.90;99.90;;;;;;5067242;28;19908;-74
2022/05/14 11:33:17;;;;;;;;;;;23.80;99.90;;;;;;5053500;28;19919;-74
2022/05/14 11:35:49;;;;;;;;;;;23.80;99.90;;;;;;5059167;28;19913;-84
2022/05/14 11:38:35;;;;;;;;;;;23.80;99.90;;;;;;5061471;28;19912;-72
2022/05/14 11:41:07;;;;;;;;;;;24.00;99.90;;;;;;5052931;28;20315;-72
2022/05/14 11:43:32;;;;;;;;;;;24.10;99.90;;;;;;5056273;28;19916;-72
2022/05/14 11:46:14;;;;;;;;;;;24.20;99.90;;;;;;5073606;28;19913;-73
2022/05/14 11:48:47;;;;;;;;;;;24.30;99.90;;;;;;5059263;28;19921;-72
2022/05/14 11:51:16;;;;;;;;;;;24.50;99.90;;;;;;5064196;28;20312;-71
2022/05/14 11:53:50;;;;;;;;;;;24.60;99.90;;;;;;5077189;28;19979;-70
2022/05/14 11:56:20;;;;;;;;;;;24.60;99.90;;;;;;5066247;28;19959;-71
2022/05/14 11:58:52;;;;;;;;;;;24.50;99.90;;;;;;5059353;28;20336;-72
2022/05/14 12:01:23;;;;;;;;;;;24.20;99.90;;;;;;5066130;28;20299;-71
2022/05/14 12:03:49;;;;;;;;;;;24.30;99.90;;;;;;5067845;28;20000;-71
2022/05/14 12:06:33;;;;;;;;;;;24.40;99.90;;;;;;5057512;28;19950;-72
2022/05/14 12:09:03;;;;;;;;;;;24.60;99.90;;;;;;5068626;28;19913;-72
2022/05/14 12:11:31;;;;;;;;;;;24.70;99.90;;;;;;5062707;28;19952;-72
2022/05/14 12:14:05;;;;;;;;;;;24.80;99.90;;;;;;5056947;28;20318;-72
2022/05/14 12:16:33;;;;;;;;;;;24.90;99.90;;;;;;5030551;28;19913;-72
2022/05/14 12:19:00;;;;;;;;;;;24.90;99.90;;;;;;5050722;28;19912;-72
2022/05/14 12:21:26;;;;;;;;;;;24.90;99.90;;;;;;5044283;28;19909;-72
2022/05/14 12:23:51;;;;;;;;;;;25.00;99.90;;;;;;5030854;28;19920;-72
2022/05/14 12:26:37;;;;;;;;;;;25.00;99.90;;;;;;5018628;28;20055;-72
2022/05/14 12:29:14;;;;;;;;;;;24.90;99.90;;;;;;5032732;28;19916;-72
2022/05/14 12:34:31;;;;;;;;;;;25.20;99.90;;;;;;5030952;28;19916;-72
2022/05/14 12:36:58;;;;;;;;;;;25.30;99.90;;;;;;5026992;28;20264;-72
2022/05/14 12:39:25;;;;;;;;;;;25.40;99.90;;;;;;5049374;28;19916;-71
2022/05/14 12:41:52;;;;;;;;;;;25.50;99.90;;;;;;5049422;28;19920;-71
2022/05/14 12:44:28;;;;;;;;;;;25.60;99.90;;;;;;5044205;28;20288;-71
2022/05/14 12:46:56;;;;;;;;;;;25.50;99.90;;;;;;5031948;28;19920;-71
2022/05/14 12:49:23;;;;;;;;;;;25.60;99.90;;;;;;5056132;28;20275;-71
2022/05/14 12:51:51;;;;;;;;;;;25.70;99.90;;;;;;5048256;28;19956;-72
2022/05/14 12:54:18;;;;;;;;;;;25.80;99.90;;;;;;5055990;28;19913;-71
2022/05/14 12:56:44;;;;;;;;;;;25.60;99.90;;;;;;5056170;28;20260;-71
2022/05/14 12:59:09;;;;;;;;;;;25.50;99.90;;;;;;5049462;28;19913;-71
2022/05/14 13:01:35;;;;;;;;;;;25.50;99.90;;;;;;5039582;28;19917;-71
2022/05/14 13:04:04;;;;;;;;;;;25.40;99.90;;;;;;5040631;28;19939;-72
2022/05/14 13:06:32;;;;;;;;;;;25.50;99.90;;;;;;5022594;28;19917;-75
2022/05/14 13:09:00;;;;;;;;;;;25.40;99.90;;;;;;5030279;28;19913;-73
2022/05/14 13:11:26;;;;;;;;;;;25.60;99.90;;;;;;5026420;28;19917;-72
2022/05/14 13:13:54;;;;;;;;;;;25.70;99.90;;;;;;5051299;28;19916;-72
2022/05/14 13:16:24;;;;;;;;;;;25.80;99.90;;;;;;5072051;28;19924;-72
2022/05/14 13:18:51;;;;;;;;;;;26.00;99.90;;;;;;5073942;28;19909;-72
2022/05/14 13:21:25;;;;;;;;;;;26.10;99.90;;;;;;5064830;28;19916;-72
2022/05/14 13:24:00;;;;;;;;;;;26.30;99.90;;;;;;5055962;28;19913;-72
2022/05/14 13:26:34;;;;;;;;;;;26.40;99.90;;;;;;5086195;28;19952;-72
2022/05/14 13:29:17;;;;;;;;;;;26.00;99.90;;;;;;5063206;28;19924;-72
2022/05/14 13:31:43;;;;;;;;;;;26.10;99.90;;;;;;5075386;28;19908;-72
2022/05/14 13:37:11;;;;;;;;;;;26.30;99.90;;;;;;5056362;28;19951;-72
2022/05/14 13:39:41;;;;;;;;;;;26.50;99.90;;;;;;5055283;28;19917;-72
2022/05/14 13:42:09;;;;;;;;;;;26.80;99.90;;;;;;5055006;28;19913;-72
2022/05/14 13:44:34;;;;;;;;;;;26.90;99.90;;;;;;5057259;28;19947;-72
2022/05/14 13:47:01;;;;;;;;;;;27.10;99.90;;;;;;5060309;28;19916;-72
2022/05/14 13:49:29;;;;;;;;;;;27.10;99.90;;;;;;5055377;28;19916;-72
2022/05/14 13:52:01;;;;;;;;;;;27.10;99.90;;;;;;5055273;28;20003;-72
2022/05/14 13:54:40;;;;;;;;;;;26.90;99.90;;;;;;5055070;28;19974;-72
2022/05/14 13:57:23;;;;;;;;;;;26.80;99.90;;;;;;5066255;28;20408;-73
2022/05/14 13:59:50;;;;;;;;;;;27.10;99.90;;;;;;5061967;28;19974;-72
2022/05/14 14:02:15;;;;;;;;;;;27.20;99.90;;;;;;5054947;28;19909;-72
2022/05/14 14:04:42;;;;;;;;;;;27.40;99.90;;;;;;5054845;28;20012;-72
2022/05/14 14:07:10;;;;;;;;;;;27.10;99.90;;;;;;5068965;28;19970;-71
2022/05/14 14:09:36;;;;;;;;;;;27.10;99.90;;;;;;5071606;28;20003;-71
2022/05/14 14:12:02;;;;;;;;;;;27.30;99.90;;;;;;5064098;28;19913;-71
2022/05/14 14:14:28;;;;;;;;;;;27.40;99.90;;;;;;5074623;28;20307;-71
2022/05/14 14:16:54;;;;;;;;;;;27.50;99.90;;;;;;5071429;28;19920;-71
2022/05/14 14:19:20;;;;;;;;;;;27.70;99.90;;;;;;5073575;28;20271;-71
2022/05/14 14:21:45;;;;;;;;;;;27.80;99.90;;;;;;5074685;28;19915;-71
2022/05/14 14:24:15;;;;;;;;;;;27.80;99.90;;;;;;5066979;28;19912;-71
2022/05/14 14:26:44;;;;;;;;;;;27.90;99.90;;;;;;5059767;28;19923;-71
2022/05/14 14:29:10;;;;;;;;;;;27.60;99.90;;;;;;5056743;28;19917;-72
2022/05/14 14:31:36;;;;;;;;;;;27.50;99.90;;;;;;5069443;28;19915;-72
2022/05/14 14:34:02;;;;;;;;;;;27.40;99.90;;;;;;5074228;28;19908;-72
2022/05/14 14:36:29;;;;;;;;;;;27.50;99.90;;;;;;5062589;28;20423;-71
2022/05/14 14:38:55;;;;;;;;;;;27.50;99.90;;;;;;5061602;28;19962;-72
2022/05/14 14:41:21;;;;;;;;;;;27.50;99.90;;;;;;5063017;28;19912;-72
2022/05/14 14:43:48;;;;;;;;;;;27.70;99.90;;;;;;5074060;28;19912;-72
2022/05/14 14:46:14;;;;;;;;;;;28.00;99.90;;;;;;5057895;28;19938;-72
2022/05/14 14:48:40;;;;;;;;;;;28.20;99.90;;;;;;5063199;28;20359;-71
2022/05/14 14:51:10;;;;;;;;;;;28.30;99.90;;;;;;5054391;28;19913;-71
2022/05/14 14:53:37;;;;;;;;;;;28.40;99.90;;;;;;5056696;28;19957;-72
2022/05/14 14:56:03;;;;;;;;;;;28.50;99.90;;;;;;5068711;28;19908;-72
2022/05/14 14:58:29;;;;;;;;;;;28.60;99.90;;;;;;5063820;28;19908;-72
2022/05/14 15:00:54;;;;;;;;;;;28.60;99.90;;;;;;5060373;28;20386;-72
2022/05/14 15:03:52;;;;;;;;;;;28.80;99.90;;;;;;5073951;28;20034;-73
2022/05/14 15:06:19;;;;;;;;;;;28.90;99.90;;;;;;5049456;28;20404;-73
2022/05/14 15:08:46;;;;;;;;;;;28.80;99.90;;;;;;5045947;28;19908;-74
2022/05/14 15:11:16;;;;;;;;;;;28.80;99.90;;;;;;5050710;28;19912;-74
2022/05/14 15:13:42;;;;;;;;;;;29.40;99.90;;;;;;5032029;28;19917;-73
2022/05/14 15:16:18;;;;;;;;;;;30.40;99.90;;;;;;5039788;28;20356;-87
2022/05/14 15:18:47;;;;;;;;;;;31.70;99.90;;;;;;5018717;28;19959;-86
2022/05/14 15:21:13;;;;;;;;;;;32.40;99.90;;;;;;5012060;28;19909;-78
2022/05/14 15:23:41;;;;;;;;;;;33.80;99.90;;;;;;5048536;28;19916;-83
2022/05/14 15:26:12;;;;;;;;;;;34.20;99.90;;;;;;5055924;28;19920;-84
2022/05/14 15:28:41;;;;;;;;;;;35.20;99.90;;;;;;5055721;28;20435;-84
2022/05/14 15:31:13;;;;;;;;;;;36.70;99.90;;;;;;5055594;28;20387;-84
2022/05/14 15:33:47;;;;;;;;;;;38.30;99.90;;;;;;5055557;28;19909;-84
2022/05/14 15:36:23;;;;;;;;;;;38.80;99.90;;;;;;5050619;28;19909;-82
2022/05/14 15:39:06;;;;;;;;;;;38.80;99.90;;;;;;5035969;28;19909;-81
2022/05/14 15:41:36;;;;;;;;;;;39.20;99.90;;;;;;5043076;28;19932;-81
2022/05/14 15:44:07;;;;;;;;;;;38.90;99.90;;;;;;5068443;28;20361;-81
2022/05/14 15:46:36;;;;;;;;;;;39.20;99.90;;;;;;5059097;28;19952;-81
2022/05/14 15:52:01;;;;;;;;;;;40.20;99.90;;;;;;5057215;28;19909;-73
2022/05/14 15:54:27;;;;;;;;;;;40.70;99.90;;;;;;5077272;28;20017;-72
2022/05/14 15:56:53;;;;;;;;;;;40.70;99.90;;;;;;5077374;28;19974;-72
2022/05/14 15:59:20;;;;;;;;;;;41.60;99.90;;;;;;5077054;28;20368;-72
2022/05/14 16:01:46;;;;;;;;;;;41.90;99.90;;;;;;5077271;28;19916;-73
2022/05/14 16:04:12;;;;;;;;;;;42.10;99.90;;;;;;5077009;28;19912;-72
2022/05/14 16:06:38;;;;;;;;;;;42.60;99.90;;;;;;5077081;28;19912;-73
2022/05/14 16:09:11;;;;;;;;;;;42.10;99.90;;;;;;5077413;28;20003;-81
2022/05/14 16:17:27;;;;;;;;;;;41.90;99.90;;;;;;5067180;28;19915;-81
2022/05/14 16:20:17;;;;;;;;;;;42.40;99.90;;;;;;5055612;28;19916;-81
2022/05/14 16:22:43;;;;;;;;;;;42.60;99.90;;;;;;5065131;28;19967;-73
2022/05/14 16:25:09;;;;;;;;;;;42.30;99.90;;;;;;5076677;28;19908;-72
2022/05/14 16:27:35;;;;;;;;;;;41.20;99.90;;;;;;5076581;28;19920;-72
2022/05/14 16:30:09;;;;;;;;;;;40.20;99.90;;;;;;5076549;28;20398;-72
2022/05/14 16:32:35;;;;;;;;;;;39.00;99.90;;;;;;5058616;28;19913;-72
2022/05/14 16:35:01;;;;;;;;;;;37.50;99.90;;;;;;5063861;28;19913;-72
2022/05/14 16:37:27;;;;;;;;;;;37.50;99.90;;;;;;5056126;28;19921;-70
2022/05/14 16:39:53;;;;;;;;;;;37.70;99.90;;;;;;5069602;28;20322;-71
2022/05/14 16:42:19;;;;;;;;;;;38.50;99.90;;;;;;5057388;28;19921;-71
2022/05/14 16:44:45;;;;;;;;;;;39.20;99.90;;;;;;5068081;28;19935;-71
2022/05/14 16:47:11;;;;;;;;;;;39.70;99.90;;;;;;5056204;28;19913;-71
2022/05/14 16:49:36;;;;;;;;;;;40.20;99.90;;;;;;5073123;28;19966;-71